Time;durP1;ratioP1;P1;durP2;ratioP2;P2;SDS_P1;SDS_P2;PMS_P1;PMS_P2;Temp;Humidity;BMP_temperature;BMP_pressure;BME280_temperature;BME280_humidity;BME280_pressure;Samples;Min_cycle;Max_cycle;Signal;HPM_P1;HPM_P2
2022/06/08 00:00:34;;;;;;;2.00;1.90;;;;;;;20.46;47.27;100139.75;1679877;84;21036;-67
2022/06/08 00:03:20;;;;;;;3.58;2.12;;;;;;;20.39;47.60;100139.41;1672586;85;21022;-66
2022/06/08 00:05:46;;;;;;;1.95;1.75;;;;;;;20.33;47.91;100136.38;1671198;85;21068;-67
2022/06/08 00:08:16;;;;;;;2.17;2.05;;;;;;;20.27;47.97;100140.12;1668058;85;21059;-66
2022/06/08 00:10:42;;;;;;;2.20;1.77;;;;;;;20.21;48.18;100133.86;1648329;85;21133;-67
2022/06/08 00:13:09;;;;;;;3.40;1.45;;;;;;;20.18;48.35;100134.36;1669988;84;21060;-68
2022/06/08 00:15:37;;;;;;;2.80;1.77;;;;;;;20.17;48.43;100144.08;1655380;84;21060;-67
2022/06/08 00:18:06;;;;;;;2.00;1.37;;;;;;;20.14;48.64;100136.50;1665353;84;21686;-68
2022/06/08 00:20:34;;;;;;;3.92;2.27;;;;;;;20.12;49.30;100127.82;1660945;84;21143;-66
2022/06/08 00:23:00;;;;;;;1.90;1.80;;;;;;;20.09;49.66;100135.09;1654879;84;21561;-66
2022/06/08 00:25:28;;;;;;;1.80;1.70;;;;;;;20.01;50.38;100135.82;1664308;84;21584;-67
2022/06/08 00:27:55;;;;;;;2.33;2.10;;;;;;;19.96;50.44;100134.41;1666455;84;21088;-66
2022/06/08 00:30:22;;;;;;;2.37;2.17;;;;;;;19.91;50.42;100137.60;1663438;84;21125;-67
2022/06/08 00:32:50;;;;;;;2.58;2.22;;;;;;;19.86;50.23;100135.67;1666884;84;21101;-67
2022/06/08 00:35:17;;;;;;;3.58;1.92;;;;;;;19.85;50.10;100131.33;1664926;84;21090;-67
2022/06/08 00:37:42;;;;;;;2.22;2.02;;;;;;;19.81;50.28;100122.91;1683108;84;21002;-66
2022/06/08 00:40:13;;;;;;;3.55;2.50;;;;;;;19.77;50.37;100129.89;1684611;84;21062;-67
2022/06/08 00:42:41;;;;;;;3.95;2.42;;;;;;;19.75;50.39;100127.17;1687900;84;21022;-67
2022/06/08 00:45:15;;;;;;;2.83;2.45;;;;;;;19.74;50.59;100125.53;1674668;84;21169;-67
2022/06/08 00:47:59;;;;;;;4.80;2.37;;;;;;;19.71;51.11;100122.78;1648743;84;21035;-67
2022/06/08 00:50:31;;;;;;;3.12;2.17;;;;;;;19.67;52.13;100120.30;1663137;84;21181;-67
2022/06/08 00:52:59;;;;;;;2.55;2.42;;;;;;;19.63;52.63;100111.87;1663667;84;21327;-68
2022/06/08 00:55:31;;;;;;;5.10;2.52;;;;;;;19.61;53.26;100116.73;1665250;85;21052;-67
2022/06/08 00:58:03;;;;;;;2.40;2.20;;;;;;;19.58;53.21;100117.22;1653876;84;21135;-68
2022/06/08 01:00:37;;;;;;;2.12;2.02;;;;;;;19.54;53.51;100112.05;1680940;84;20995;-67
2022/06/08 01:03:06;;;;;;;3.30;2.67;;;;;;;19.50;53.49;100119.58;1658510;85;21007;-68
2022/06/08 01:05:44;;;;;;;2.87;2.67;;;;;;;19.44;53.77;100111.94;1678376;84;21039;-67
2022/06/08 01:08:49;;;;;;;2.60;2.47;;;;;;;19.41;53.82;100111.09;1672734;84;21582;-68
2022/06/08 01:11:43;;;;;;;2.22;2.12;;;;;;;19.37;53.79;100112.66;1674874;84;21588;-68
2022/06/08 01:14:15;;;;;;;2.35;2.20;;;;;;;19.33;54.33;100117.75;1677216;84;21093;-67
2022/06/08 01:16:54;;;;;;;2.70;2.50;;;;;;;19.30;54.86;100110.14;1681704;84;21109;-68
2022/06/08 01:19:21;;;;;;;6.75;2.33;;;;;;;19.29;54.99;100115.79;1682265;84;21094;-66
2022/06/08 01:21:54;;;;;;;3.92;2.12;;;;;;;19.28;55.05;100119.58;1680337;84;21042;-67
2022/06/08 01:24:30;;;;;;;2.87;2.52;;;;;;;19.26;54.99;100113.88;1677172;84;21073;-68
2022/06/08 01:27:22;;;;;;;3.37;2.83;;;;;;;19.24;55.33;100116.55;1681345;84;21027;-68
2022/06/08 01:30:16;;;;;;;2.50;2.40;;;;;;;19.23;55.55;100118.45;1679537;84;21115;-67
2022/06/08 01:33:29;;;;;;;2.77;2.25;;;;;;;19.21;55.63;100117.05;1680391;84;21118;-68
2022/06/08 01:36:07;;;;;;;2.75;2.55;;;;;;;19.21;55.83;100119.75;1675293;84;21110;-68
2022/06/08 01:39:03;;;;;;;3.55;1.92;;;;;;;19.21;56.02;100119.75;1669803;84;21616;-67
2022/06/08 01:41:44;;;;;;;2.35;2.20;;;;;;;19.19;56.18;100120.02;1681215;84;21086;-67
2022/06/08 01:48:26;;;;;;;3.22;2.35;;;;;;;19.13;56.42;100114.79;1670505;85;21062;-67
2022/06/08 01:51:16;;;;;;;5.72;2.27;;;;;;;19.10;56.63;100112.06;1671751;85;21121;-67
2022/06/08 01:54:13;;;;;;;3.10;2.33;;;;;;;19.11;56.95;100117.73;1669264;85;21079;-67
2022/06/08 01:57:22;;;;;;;3.47;2.67;;;;;;;19.14;57.07;100118.59;1675856;84;21046;-67
2022/06/08 01:59:54;;;;;;;4.45;2.62;;;;;;;19.15;57.23;100118.87;1678485;84;21094;-66
2022/06/08 02:02:27;;;;;;;2.45;2.25;;;;;;;19.16;57.56;100109.70;1677311;84;21030;-68
2022/06/08 02:05:31;;;;;;;5.78;2.33;;;;;;;19.17;57.56;100111.33;1677386;85;21550;-68
2022/06/08 02:08:26;;;;;;;2.92;2.20;;;;;;;19.18;57.86;100117.02;1642167;86;21034;-67
2022/06/08 02:11:22;;;;;;;3.25;2.22;;;;;;;19.19;58.13;100117.83;1618899;88;21103;-68
2022/06/08 02:13:57;;;;;;;2.67;2.40;;;;;;;19.19;58.61;100117.32;1679354;85;21011;-67
2022/06/08 02:16:45;;;;;;;4.95;2.87;;;;;;;19.22;58.81;100119.50;1679817;84;21435;-67
2022/06/08 02:19:41;;;;;;;2.12;2.05;;;;;;;19.24;58.51;100120.61;1670966;84;21570;-67
2022/06/08 02:22:20;;;;;;;2.15;2.05;;;;;;;19.26;58.58;100122.52;1677665;85;21134;-67
2022/06/08 02:24:58;;;;;;;2.83;2.62;;;;;;;19.28;58.62;100120.92;1677265;85;21612;-66
2022/06/08 02:27:36;;;;;;;2.92;2.60;;;;;;;19.30;58.59;100117.44;1680034;84;21094;-68
2022/06/08 02:30:11;;;;;;;2.33;2.12;;;;;;;19.39;58.76;100118.63;1663366;84;21051;-67
2022/06/08 02:35:51;;;;;;;2.77;2.52;;;;;;;19.69;58.49;100125.47;1665714;85;21054;-66
2022/06/08 02:38:22;;;;;;;2.30;2.02;;;;;;;20.00;57.71;100127.45;1665479;85;21324;-67
2022/06/08 02:40:55;;;;;;;1.80;1.60;;;;;;;20.20;56.75;100125.44;1674779;85;21054;-66
2022/06/08 02:43:27;;;;;;;2.25;1.87;;;;;;;20.33;55.91;100128.81;1674036;85;21561;-67
2022/06/08 02:46:22;;;;;;;2.65;1.77;;;;;;;20.46;55.09;100130.27;1661371;85;21603;-66
2022/06/08 02:48:49;;;;;;;2.22;2.05;;;;;;;20.58;54.39;100126.83;1657938;86;21085;-66
2022/06/08 02:51:20;;;;;;;3.25;2.37;;;;;;;20.59;54.19;100129.83;1639980;86;21089;-67
2022/06/08 02:54:00;;;;;;;2.20;2.10;;;;;;;20.57;53.41;100132.78;1664013;85;21177;-67
2022/06/08 02:56:42;;;;;;;2.30;2.17;;;;;;;20.54;53.50;100135.19;1663809;84;21101;-66
2022/06/08 02:59:20;;;;;;;1.65;1.55;;;;;;;20.74;53.21;100131.86;1707230;84;21126;-68
2022/06/08 03:01:53;;;;;;;7.65;2.75;;;;;;;21.12;52.40;100135.32;1644045;86;21091;-67
2022/06/08 03:04:28;;;;;;;2.10;1.77;;;;;;;21.36;51.03;100137.03;1655515;86;21028;-66
2022/06/08 03:07:00;;;;;;;5.22;2.10;;;;;;;21.62;50.34;100131.75;1660797;86;21094;-65
2022/06/08 03:09:28;;;;;;;2.55;2.25;;;;;;;22.10;49.79;100125.61;1656057;86;21022;-65
2022/06/08 03:12:04;;;;;;;3.20;2.33;;;;;;;22.66;48.43;100128.34;1657591;85;21542;-65
2022/06/08 03:14:33;;;;;;;2.25;2.10;;;;;;;22.92;46.79;100124.20;1658744;86;21070;-69
2022/06/08 03:17:07;;;;;;;3.35;1.65;;;;;;;22.76;46.85;100132.94;1661916;86;21040;-70
2022/06/08 03:19:37;;;;;;;1.50;1.35;;;;;;;22.50;47.78;100127.53;1663149;85;21074;-68
2022/06/08 03:22:05;;;;;;;2.08;1.80;;;;;;;22.29;48.10;100124.02;1662436;85;21038;-69
2022/06/08 03:24:32;;;;;;;2.83;1.75;;;;;;;22.05;48.55;100125.05;1662454;85;21511;-67
2022/06/08 03:27:08;;;;;;;4.05;2.40;;;;;;;21.80;49.16;100123.12;1669306;85;21020;-66
2022/06/08 03:29:35;;;;;;;3.72;1.40;;;;;;;21.83;49.42;100119.88;1667513;85;21011;-66
2022/06/08 03:32:01;;;;;;;2.35;2.15;;;;;;;22.37;48.98;100120.48;1660688;85;21122;-67
2022/06/08 03:34:31;;;;;;;1.30;1.15;;;;;;;23.17;47.45;100120.64;1636717;85;21098;-67
2022/06/08 03:36:57;;;;;;;3.77;1.30;;;;;;;23.92;44.63;100119.72;1681051;84;21028;-65
2022/06/08 03:39:25;;;;;;;4.33;1.72;;;;;;;24.46;42.98;100120.66;1670438;84;21113;-67
2022/06/08 03:41:53;;;;;;;1.95;1.05;;;;;;;24.78;42.29;100123.39;1631572;85;21069;-68
2022/06/08 03:44:20;;;;;;;1.75;1.47;;;;;;;24.70;41.69;100122.67;1673738;84;21059;-68
2022/06/08 03:46:55;;;;;;;2.02;0.93;;;;;;;24.35;42.34;100123.22;1705856;84;20992;-67
2022/06/08 03:49:24;;;;;;;1.92;1.37;;;;;;;24.09;43.02;100122.88;1700296;82;21023;-66
2022/06/08 03:51:53;;;;;;;2.40;1.45;;;;;;;23.82;43.54;100126.59;1705040;84;21031;-66
2022/06/08 03:54:25;;;;;;;1.90;1.40;;;;;;;23.50;44.23;100124.55;1701488;84;21087;-68
2022/06/08 03:56:55;;;;;;;3.22;1.10;;;;;;;22.92;45.17;100088.88;1708019;82;21152;-65
2022/06/08 03:59:25;;;;;;;1.67;1.40;;;;;;;22.91;45.77;100130.19;1704766;82;22230;-72
2022/06/08 04:01:53;;;;;;;1.37;1.27;;;;;;;22.66;46.42;100129.70;1704466;82;21035;-70
2022/06/08 04:04:21;;;;;;;2.80;1.52;;;;;;;22.51;46.63;100125.09;1699360;84;21502;-68
2022/06/08 04:06:49;;;;;;;2.95;1.67;;;;;;;22.84;47.84;100124.77;1703966;84;21106;-67
2022/06/08 04:09:17;;;;;;;7.67;1.40;;;;;;;23.66;45.57;100125.86;1704703;84;21079;-67
2022/06/08 04:11:46;;;;;;;1.27;1.17;;;;;;;24.64;43.85;100126.80;1700041;82;21106;-69
2022/06/08 04:14:12;;;;;;;1.70;1.60;;;;;;;25.66;42.06;100128.09;1695616;84;21600;-68
2022/06/08 04:16:41;;;;;;;1.15;1.10;;;;;;;26.58;39.70;100121.20;1702116;84;21054;-66
2022/06/08 04:19:10;;;;;;;3.42;1.15;;;;;;;27.42;38.09;100122.08;1705317;83;21619;-66
2022/06/08 04:21:39;;;;;;;1.77;1.20;;;;;;;28.12;37.11;100119.97;1704300;84;21058;-67
2022/06/08 04:24:10;;;;;;;2.62;0.78;;;;;;;28.70;35.51;100119.63;1710769;82;21026;-66
2022/06/08 04:26:40;;;;;;;6.10;0.93;;;;;;;29.03;33.86;100120.66;1689242;82;21198;-67
2022/06/08 04:29:13;;;;;;;1.02;0.68;;;;;;;29.25;33.85;100119.22;1696353;82;21656;-66
2022/06/08 04:31:42;;;;;;;2.10;0.93;;;;;;;29.58;32.85;100121.53;1680486;84;21119;-67
2022/06/08 04:34:13;;;;;;;2.20;0.70;;;;;;;29.87;33.08;100120.11;1666149;84;21076;-71
2022/06/08 04:36:41;;;;;;;5.05;2.72;;;;;;;30.18;32.48;100117.19;1674272;84;21004;-71
2022/06/08 04:39:11;;;;;;;1.55;0.53;;;;;;;30.56;31.11;100122.56;1667188;85;21092;-70
2022/06/08 04:41:40;;;;;;;0.50;0.30;;;;;;;30.81;30.27;100117.52;1648158;85;21069;-70
2022/06/08 04:44:07;;;;;;;1.70;0.30;;;;;;;30.97;29.03;100123.31;1662107;84;21051;-68
2022/06/08 04:46:34;;;;;;;4.30;0.50;;;;;;;30.94;30.04;100123.97;1667806;84;21658;-70
2022/06/08 04:49:03;;;;;;;2.12;0.80;;;;;;;30.94;30.03;100121.80;1683953;84;21106;-72
2022/06/08 04:51:30;;;;;;;4.25;3.92;;;;;;;31.07;29.84;100126.26;1678142;84;21072;-69
2022/06/08 04:53:58;;;;;;;1.70;1.67;;;;;;;31.13;30.12;100120.80;1671647;84;21052;-68
2022/06/08 04:57:39;;;;;;;1.32;0.60;;;;;;;31.24;29.12;100115.14;1726572;79;23381;-69
2022/06/08 05:00:17;;;;;;;4.25;0.85;;;;;;;31.16;29.14;100118.77;1694014;83;21040;-65
2022/06/08 05:02:47;;;;;;;1.47;0.70;;;;;;;31.07;29.22;100123.50;1663674;84;21045;-71
2022/06/08 05:05:24;;;;;;;2.02;1.77;;;;;;;31.14;28.99;100122.42;1664701;84;21014;-73
2022/06/08 05:07:54;;;;;;;11.97;10.85;;;;;;;31.13;29.07;100120.80;1637293;86;22025;-71
2022/06/08 05:10:24;;;;;;;2.45;1.92;;;;;;;31.10;29.99;100122.85;1632493;86;21109;-69
2022/06/08 05:12:52;;;;;;;4.95;0.50;;;;;;;31.19;28.97;100120.86;1621249;87;21714;-68
2022/06/08 05:15:30;;;;;;;2.37;0.85;;;;;;;31.25;27.30;100115.97;1622730;87;21104;-70
2022/06/08 05:18:00;;;;;;;1.45;0.90;;;;;;;31.15;28.56;100121.27;1650948;86;21061;-69
2022/06/08 05:20:31;;;;;;;2.55;0.53;;;;;;;31.12;27.87;100120.58;1624107;87;21851;-72
2022/06/08 05:22:59;;;;;;;3.15;0.57;;;;;;;31.07;28.40;100115.25;1615211;87;21054;-72
2022/06/08 05:25:36;;;;;;;0.80;0.33;;;;;;;30.86;27.67;100122.05;1623666;86;21000;-72
2022/06/08 05:28:06;;;;;;;2.95;0.57;;;;;;;30.60;27.54;100123.51;1648175;86;21541;-70
2022/06/08 05:30:36;;;;;;;0.40;0.20;;;;;;;30.50;28.16;100125.22;1654315;85;21493;-72
2022/06/08 05:33:05;;;;;;;0.90;0.30;;;;;;;30.44;28.28;100118.55;1650942;85;21022;-72
2022/06/08 05:35:33;;;;;;;2.27;0.90;;;;;;;30.41;28.22;100124.69;1630093;87;21069;-70
2022/06/08 05:38:00;;;;;;;1.02;1.02;;;;;;;30.31;29.22;100122.81;1634533;87;21012;-70
2022/06/08 05:40:28;;;;;;;5.15;1.12;;;;;;;30.54;28.82;100119.33;1632330;87;21070;-70
2022/06/08 05:42:56;;;;;;;3.42;0.35;;;;;;;30.83;29.02;100115.81;1629758;87;21046;-70
2022/06/08 05:45:27;;;;;;;2.65;0.20;;;;;;;31.13;27.15;100114.49;1646475;85;21041;-71
2022/06/08 05:47:56;;;;;;;1.95;0.62;;;;;;;31.07;26.93;100114.45;1663385;85;21018;-71
2022/06/08 05:50:23;;;;;;;2.62;1.07;;;;;;;30.97;27.78;100116.44;1660735;85;21068;-71
2022/06/08 05:52:51;;;;;;;1.62;1.22;;;;;;;31.10;27.68;100116.52;1658366;85;21109;-76
2022/06/08 05:55:21;;;;;;;3.10;0.95;;;;;;;31.24;27.23;100116.52;1661505;85;21045;-77
2022/06/08 05:57:51;;;;;;;6.08;0.50;;;;;;;31.26;27.86;100116.77;1609393;88;21240;-72
2022/06/08 06:00:23;;;;;;;2.35;1.45;;;;;;;31.08;27.00;100114.13;1611732;87;22440;-73
2022/06/08 06:02:50;;;;;;;2.10;1.75;;;;;;;30.83;28.03;100117.98;1668998;84;21148;-72
2022/06/08 06:05:21;;;;;;;1.90;0.40;;;;;;;30.78;28.62;100118.73;1669069;83;21068;-72
2022/06/08 06:07:48;;;;;;;1.37;0.60;;;;;;;31.03;27.97;100115.68;1663333;85;21006;-73
2022/06/08 06:10:29;;;;;;;3.58;0.62;;;;;;;31.33;27.43;100107.42;1663007;84;21596;-72
2022/06/08 06:12:57;;;;;;;3.62;1.77;;;;;;;31.24;27.25;100108.26;1667019;84;21045;-72
2022/06/08 06:15:27;;;;;;;3.15;1.47;;;;;;;31.19;28.19;100105.72;1646700;85;21176;-73
2022/06/08 06:17:55;;;;;;;3.22;0.65;;;;;;;31.40;27.64;100100.23;1687345;83;20982;-74
2022/06/08 06:20:22;;;;;;;2.47;0.53;;;;;;;31.57;26.73;100103.47;1683810;83;21225;-74
2022/06/08 06:22:54;;;;;;;2.25;0.47;;;;;;;31.60;26.10;100101.41;1660798;84;21091;-73
2022/06/08 06:25:38;;;;;;;1.27;0.35;;;;;;;31.48;26.48;100101.92;1606990;88;21067;-73
2022/06/08 06:28:06;;;;;;;1.25;0.20;;;;;;;31.30;26.41;100103.95;1666515;83;21103;-73
2022/06/08 06:30:50;;;;;;;1.07;0.10;;;;;;;31.27;25.46;100099.09;1601608;87;21206;-72
2022/06/08 06:33:25;;;;;;;1.62;0.10;;;;;;;30.98;25.42;100104.85;1658537;84;21558;-74
2022/06/08 06:35:52;;;;;;;0.55;0.15;;;;;;;30.66;25.82;100108.44;1676435;84;21168;-73
2022/06/08 06:38:19;;;;;;;3.72;0.30;;;;;;;30.49;26.10;100104.38;1680165;84;21610;-72
2022/06/08 06:40:47;;;;;;;2.65;0.30;;;;;;;30.44;27.18;100101.22;1677658;84;21047;-75
2022/06/08 06:43:15;;;;;;;3.08;0.20;;;;;;;30.61;26.99;100102.56;1680437;84;21506;-74
2022/06/08 06:45:43;;;;;;;0.55;0.20;;;;;;;30.69;26.77;100098.73;1645584;84;21070;-74
2022/06/08 06:48:27;;;;;;;1.32;0.15;;;;;;;30.72;27.14;100105.73;1564115;89;21126;-70
2022/06/08 06:50:55;;;;;;;2.50;0.37;;;;;;;30.79;26.48;100102.48;1609392;87;21051;-68
2022/06/08 06:53:22;;;;;;;2.08;0.20;;;;;;;30.76;25.92;100102.59;1616309;87;21621;-68
2022/06/08 06:55:51;;;;;;;2.40;0.15;;;;;;;30.66;25.39;100103.73;1633449;86;21109;-68
2022/06/08 06:58:19;;;;;;;1.75;0.10;;;;;;;30.38;25.00;100109.41;1658825;86;21145;-70
2022/06/08 07:00:46;;;;;;;2.95;0.30;;;;;;;30.12;26.40;100102.55;1662761;85;21153;-67
2022/06/08 07:03:17;;;;;;;0.95;0.10;;;;;;;30.11;26.92;100110.58;1673988;85;21028;-69
2022/06/08 07:05:45;;;;;;;2.37;0.30;;;;;;;30.13;25.69;100109.67;1664710;85;21401;-69
2022/06/08 07:08:12;;;;;;;0.20;0.20;;;;;;;30.19;25.97;100100.12;1654596;85;22227;-68
2022/06/08 07:10:39;;;;;;;2.62;0.10;;;;;;;30.27;25.91;100106.16;1667684;85;21562;-69
2022/06/08 07:13:07;;;;;;;3.60;0.20;;;;;;;30.25;25.84;100108.42;1684262;84;21083;-68
2022/06/08 07:15:36;;;;;;;1.75;0.10;;;;;;;30.05;26.50;100103.06;1689664;84;21051;-68
2022/06/08 07:18:02;;;;;;;0.45;0.40;;;;;;;29.95;27.56;100106.95;1688108;84;21034;-68
2022/06/08 07:20:30;;;;;;;0.75;0.15;;;;;;;29.92;28.62;100095.80;1693249;84;21038;-67
2022/06/08 07:22:56;;;;;;;1.20;0.23;;;;;;;29.97;27.46;100085.45;1632628;87;22169;-67
2022/06/08 07:25:26;;;;;;;2.80;0.20;;;;;;;30.09;27.96;100096.58;1689084;84;21117;-67
2022/06/08 07:27:51;;;;;;;0.35;0.10;;;;;;;30.08;27.03;100090.86;1683750;84;21138;-67
2022/06/08 07:30:17;;;;;;;1.20;0.72;;;;;;;30.07;28.12;100098.84;1629361;87;21109;-66
2022/06/08 07:32:44;;;;;;;0.78;0.10;;;;;;;30.15;27.13;100093.09;1675013;84;21133;-68
2022/06/08 07:35:12;;;;;;;1.45;0.20;;;;;;;30.19;26.89;100098.75;1680555;84;21027;-68
2022/06/08 07:37:38;;;;;;;2.25;0.40;;;;;;;30.03;26.60;100089.64;1629665;86;21098;-69
2022/06/08 07:40:07;;;;;;;2.98;0.23;;;;;;;29.87;27.51;100095.39;1690098;84;21043;-68
2022/06/08 07:42:36;;;;;;;0.55;0.10;;;;;;;29.77;27.28;100097.90;1691810;84;21654;-68
2022/06/08 07:45:07;;;;;;;0.62;0.10;;;;;;;29.62;27.35;100097.78;1647379;86;21573;-69
2022/06/08 07:47:33;;;;;;;1.57;0.10;;;;;;;29.36;27.88;100099.70;1650441;86;21086;-71
2022/06/08 07:49:59;;;;;;;1.65;0.10;;;;;;;29.22;27.37;100096.52;1640968;86;21050;-70
2022/06/08 07:52:26;;;;;;;1.95;0.13;;;;;;;29.17;27.74;100095.29;1640973;86;21007;-69
2022/06/08 07:54:53;;;;;;;0.20;0.20;;;;;;;29.09;27.90;100095.48;1646765;86;21137;-68
2022/06/08 07:57:27;;;;;;;1.90;0.28;;;;;;;28.86;28.38;100092.61;1678945;83;21078;-65
2022/06/08 07:59:55;;;;;;;1.15;0.15;;;;;;;28.70;28.83;100094.37;1679781;83;21140;-67
2022/06/08 08:02:22;;;;;;;0.82;0.25;;;;;;;28.66;29.39;100092.59;1655712;85;21060;-65
2022/06/08 08:04:49;;;;;;;2.50;0.20;;;;;;;28.61;29.72;100089.98;1657185;85;21173;-65
2022/06/08 08:07:18;;;;;;;2.00;1.05;;;;;;;28.60;29.54;100101.52;1681324;83;21564;-65
2022/06/08 08:09:44;;;;;;;0.75;0.75;;;;;;;28.62;29.36;100090.23;1682827;83;21007;-65
2022/06/08 08:12:12;;;;;;;2.22;0.50;;;;;;;28.72;29.91;100087.20;1684588;83;21113;-65
2022/06/08 08:14:38;;;;;;;5.78;0.60;;;;;;;28.88;29.63;100091.72;1677779;85;21160;-64
2022/06/08 08:17:05;;;;;;;1.67;1.55;;;;;;;29.02;29.67;100094.34;1676770;85;21124;-66
2022/06/08 08:19:38;;;;;;;1.17;0.33;;;;;;;29.11;29.87;100092.42;1682495;84;21121;-65
2022/06/08 08:22:05;;;;;;;0.20;0.10;;;;;;;29.17;29.23;100082.14;1677879;84;21070;-65
2022/06/08 08:24:32;;;;;;;1.77;0.20;;;;;;;29.27;28.61;100086.77;1678728;84;21113;-65
2022/06/08 08:26:58;;;;;;;0.57;0.20;;;;;;;29.26;28.71;100089.83;1614342;87;21184;-66
2022/06/08 08:29:24;;;;;;;6.75;0.20;;;;;;;29.25;28.45;100088.20;1615421;87;21112;-66
2022/06/08 08:31:51;;;;;;;1.57;0.20;;;;;;;29.19;27.78;100096.34;1617007;87;21071;-66
2022/06/08 08:34:18;;;;;;;2.10;0.20;;;;;;;29.12;27.92;100089.91;1629608;86;21117;-65
2022/06/08 08:36:45;;;;;;;2.37;0.10;;;;;;;29.12;27.75;100107.75;1613089;87;21057;-65
2022/06/08 08:39:12;;;;;;;0.42;0.17;;;;;;;29.01;26.53;100096.82;1669829;84;21098;-66
2022/06/08 08:44:40;;;;;;;2.17;0.10;;;;;;;28.71;27.59;100084.23;1673426;83;21108;-65
2022/06/08 08:47:15;;;;;;;2.27;0.25;;;;;;;28.72;28.61;100081.72;1680389;84;21031;-65
2022/06/08 08:50:02;;;;;;;2.90;0.28;;;;;;;28.69;29.35;100075.52;1628968;86;21045;-64
2022/06/08 08:52:38;;;;;;;2.20;0.42;;;;;;;28.71;28.96;100071.89;1636010;86;21204;-67
2022/06/08 08:55:19;;;;;;;2.42;0.10;;;;;;;28.78;28.81;100073.59;1614825;86;21660;-65
2022/06/08 08:58:04;;;;;;;0.80;0.28;;;;;;;28.86;28.18;100074.77;1584626;89;21637;-68
2022/06/08 09:00:39;;;;;;;3.30;0.13;;;;;;;28.84;28.50;100075.63;1580488;90;22361;-66
2022/06/08 09:03:23;;;;;;;0.98;0.13;;;;;;;28.81;26.83;100084.51;1603623;89;21139;-65
2022/06/08 09:05:54;;;;;;;2.30;0.10;;;;;;;28.65;26.67;100073.14;1595421;89;21065;-65
2022/06/08 09:08:23;;;;;;;0.55;0.20;;;;;;;28.43;26.89;100071.25;1591837;88;21141;-66
2022/06/08 09:10:55;;;;;;;0.75;0.30;;;;;;;28.34;27.29;100073.36;1596563;87;21608;-67
2022/06/08 09:13:36;;;;;;;1.52;0.37;;;;;;;28.27;27.46;100074.94;1563059;89;21058;-65
2022/06/08 09:16:03;;;;;;;0.28;0.13;;;;;;;28.21;27.68;100067.98;1597237;88;21093;-68
2022/06/08 09:18:37;;;;;;;1.00;0.20;;;;;;;28.17;28.24;100071.09;1602973;88;21777;-66
2022/06/08 09:21:35;;;;;;;1.12;0.40;;;;;;;28.18;28.30;100076.27;1608365;88;21038;-67
2022/06/08 09:24:38;;;;;;;1.17;0.20;;;;;;;28.06;28.16;100076.81;1599515;88;21097;-66
2022/06/08 09:27:33;;;;;;;0.93;0.30;;;;;;;27.90;28.06;100061.90;1609857;87;21085;-67
2022/06/08 09:30:14;;;;;;;3.52;0.20;;;;;;;27.92;28.30;100071.41;1599382;88;21090;-64
2022/06/08 09:32:50;;;;;;;0.53;0.10;;;;;;;27.91;28.23;100068.41;1617475;87;21077;-67
2022/06/08 09:35:34;;;;;;;2.10;0.10;;;;;;;27.95;28.48;100065.33;1639682;86;21188;-64
2022/06/08 09:38:07;;;;;;;2.05;0.25;;;;;;;28.00;28.90;100056.16;1625981;86;21067;-65
2022/06/08 09:41:09;;;;;;;0.25;0.10;;;;;;;27.96;28.79;100057.91;1627292;86;21217;-66
2022/06/08 09:44:06;;;;;;;3.80;0.30;;;;;;;27.94;28.79;100061.52;1634180;86;21039;-66
2022/06/08 09:53:34;;;;;;;0.57;0.20;;;;;;;28.09;28.85;100041.16;1636419;86;21570;-66
2022/06/08 09:56:17;;;;;;;0.50;0.20;;;;;;;28.21;28.55;100050.16;1644806;86;21097;-65
2022/06/08 09:59:17;;;;;;;1.35;0.20;;;;;;;28.27;28.43;100050.27;1632280;86;21088;-65
2022/06/08 10:02:09;;;;;;;2.05;0.25;;;;;;;28.26;28.19;100054.16;1643898;85;21116;-66
2022/06/08 10:04:41;;;;;;;0.72;0.10;;;;;;;28.04;27.87;100044.81;1652089;85;21034;-68
2022/06/08 10:07:28;;;;;;;0.55;0.10;;;;;;;27.83;28.09;100048.59;1640638;86;21150;-66
2022/06/08 10:10:17;;;;;;;;;;;;;;;27.82;28.26;100045.62;1642936;85;21543;-66
2022/06/08 10:13:01;;;;;;;1.55;0.10;;;;;;;27.90;28.10;100049.58;1651981;85;20327;-67
2022/06/08 10:15:59;;;;;;;2.60;0.10;;;;;;;27.93;27.94;100046.20;1656467;85;20982;-66
2022/06/08 10:18:37;;;;;;;0.10;0.10;;;;;;;28.00;27.78;100036.98;1611751;87;21097;-67
2022/06/08 10:21:26;;;;;;;0.55;0.17;;;;;;;28.04;27.78;100035.80;1654254;85;21059;-66
2022/06/08 10:24:07;;;;;;;2.00;0.20;;;;;;;28.11;27.82;100030.69;1655668;85;21069;-67
2022/06/08 10:26:43;;;;;;;1.52;0.30;;;;;;;28.21;27.96;100025.50;1673225;85;21145;-65
2022/06/08 10:29:45;;;;;;;1.82;0.20;;;;;;;28.40;27.97;100024.70;1659772;85;21082;-67
2022/06/08 10:32:29;;;;;;;1.55;0.10;;;;;;;28.54;27.93;100017.22;1658583;85;21108;-67
2022/06/08 10:35:03;;;;;;;0.17;0.10;;;;;;;28.62;27.11;100018.95;1658000;84;21085;-67
2022/06/08 10:37:40;;;;;;;2.50;0.10;;;;;;;28.67;27.47;100014.67;1614564;87;21113;-66
2022/06/08 10:40:18;;;;;;;0.70;0.10;;;;;;;28.65;27.62;100008.70;1645289;85;21611;-66
2022/06/08 10:42:48;;;;;;;0.35;0.10;;;;;;;28.65;27.00;100016.92;1646857;85;21577;-65
2022/06/08 10:45:37;;;;;;;0.47;0.20;;;;;;;28.60;27.03;100015.15;1659950;85;21230;-65
2022/06/08 10:48:15;;;;;;;2.90;0.10;;;;;;;28.57;27.50;100011.66;1650904;85;21502;-65
2022/06/08 10:50:48;;;;;;;0.65;0.20;;;;;;;28.52;26.84;100009.87;1653168;85;21039;-67
2022/06/08 10:56:41;;;;;;;0.42;0.10;;;;;;;28.63;27.00;100003.55;1673648;84;21137;-67
2022/06/08 10:59:14;;;;;;;0.37;0.10;;;;;;;28.69;26.94;100000.91;1684848;83;21710;-67
2022/06/08 11:02:17;;;;;;;0.68;0.17;;;;;;;28.79;26.73;99999.00;1650977;83;21023;-67
2022/06/08 11:05:18;;;;;;;0.90;0.20;;;;;;;28.90;26.58;99999.74;1634514;87;21090;-65
2022/06/08 11:08:12;;;;;;;1.02;0.10;;;;;;;28.88;26.83;100002.00;1630414;86;21074;-67
2022/06/08 11:10:49;;;;;;;0.10;0.10;;;;;;;28.84;26.20;100002.94;1630243;86;21867;-68
2022/06/08 11:13:32;;;;;;;0.47;0.10;;;;;;;28.79;26.02;99999.00;1669400;85;21147;-69
2022/06/08 11:16:15;;;;;;;0.10;0.10;;;;;;;28.79;26.19;100000.37;1649119;85;21447;-72
2022/06/08 11:19:08;;;;;;;1.40;0.23;;;;;;;28.86;26.38;99995.23;1660960;84;21038;-73
2022/06/08 11:21:57;;;;;;;0.90;0.10;;;;;;;29.00;26.75;99995.08;1667727;85;21196;-73
2022/06/08 11:24:32;;;;;;;0.88;0.28;;;;;;;28.98;26.56;99980.88;1652429;85;21099;-74
2022/06/08 11:27:24;;;;;;;0.95;0.20;;;;;;;28.97;26.36;99990.23;1651416;85;21038;-74
2022/06/08 11:29:56;;;;;;;2.92;0.20;;;;;;;29.02;26.60;99988.13;1652542;85;21059;-73
2022/06/08 11:32:39;;;;;;;1.90;0.20;;;;;;;29.07;26.17;99983.88;1624532;87;21130;-73
2022/06/08 11:35:20;;;;;;;0.53;0.13;;;;;;;29.15;26.03;99985.61;1674914;83;21102;-72
2022/06/08 11:37:57;;;;;;;3.12;0.17;;;;;;;29.16;25.46;99982.55;1658474;85;21065;-71
2022/06/08 11:40:34;;;;;;;0.30;0.20;;;;;;;29.09;25.79;99979.44;1680244;83;21164;-72
2022/06/08 11:43:36;;;;;;;0.90;0.10;;;;;;;29.06;26.02;99981.45;1674751;84;21625;-73
2022/06/08 11:46:04;;;;;;;1.62;0.47;;;;;;;29.09;26.23;99976.70;1654499;85;21148;-73
2022/06/08 11:48:37;;;;;;;2.25;0.20;;;;;;;29.10;26.54;99972.27;1656383;85;21094;-72
2022/06/08 11:51:04;;;;;;;1.52;0.30;;;;;;;29.10;26.40;99969.52;1664763;85;21113;-81
2022/06/08 11:53:40;;;;;;;0.72;0.20;;;;;;;29.18;26.73;99969.31;1656807;85;22541;-74
2022/06/08 11:56:30;;;;;;;1.40;0.23;;;;;;;29.26;26.56;99961.64;1681030;83;21011;-70
2022/06/08 11:59:01;;;;;;;1.55;0.20;;;;;;;29.29;26.37;99959.62;1666483;84;21125;-65
2022/06/08 12:01:38;;;;;;;0.88;0.20;;;;;;;29.26;25.97;99962.20;1670711;84;21082;-63
2022/06/08 12:04:10;;;;;;;4.28;0.20;;;;;;;29.19;26.26;99954.45;1666486;84;21067;-65
2022/06/08 12:06:41;;;;;;;2.35;0.15;;;;;;;29.15;25.93;99957.59;1673461;84;21060;-67
2022/06/08 12:09:20;;;;;;;1.17;0.40;;;;;;;29.12;26.32;99954.91;1671181;84;21086;-69
2022/06/08 12:11:52;;;;;;;2.87;0.80;;;;;;;29.12;26.42;99945.85;1651429;84;21055;-69
2022/06/08 12:14:32;;;;;;;2.80;0.10;;;;;;;29.14;26.71;99950.52;1654577;86;21021;-66
2022/06/08 12:17:08;;;;;;;2.17;0.20;;;;;;;29.21;26.53;99949.44;1663662;85;21097;-70
2022/06/08 12:19:55;;;;;;;0.75;0.17;;;;;;;29.24;26.26;99948.80;1664835;85;21038;-66
2022/06/08 12:22:32;;;;;;;0.30;0.10;;;;;;;29.26;26.34;99948.48;1650136;84;21072;-66